sensor_id;sensor_type;location;lat;lon;timestamp;P1;durP1;ratioP1;P2;durP2;ratioP2
33993;SDS011;20673;48.980;8.138;2022-08-02T00:01:44;1.98;;;1.00;;
33993;SDS011;20673;48.980;8.138;2022-08-02T00:04:10;2.30;;;1.02;;
33993;SDS011;20673;48.980;8.138;2022-08-02T00:06:37;1.77;;;1.00;;
33993;SDS011;20673;48.980;8.138;2022-08-02T00:09:04;1.87;;;1.35;;
33993;SDS011;20673;48.980;8.138;2022-08-02T00:11:30;1.13;;;1.00;;
33993;SDS011;20673;48.980;8.138;2022-08-02T00:13:57;1.22;;;1.07;;
33993;SDS011;20673;48.980;8.138;2022-08-02T00:16:23;2.37;;;1.10;;
33993;SDS011;20673;48.980;8.138;2022-08-02T00:18:50;2.47;;;1.10;;
33993;SDS011;20673;48.980;8.138;2022-08-02T00:21:16;2.67;;;1.30;;
33993;SDS011;20673;48.980;8.138;2022-08-02T00:23:42;2.20;;;1.20;;
33993;SDS011;20673;48.980;8.138;2022-08-02T00:26:09;1.93;;;1.07;;
33993;SDS011;20673;48.980;8.138;2022-08-02T00:28:35;2.23;;;1.20;;
33993;SDS011;20673;48.980;8.138;2022-08-02T00:31:01;2.07;;;1.27;;
33993;SDS011;20673;48.980;8.138;2022-08-02T00:33:27;1.40;;;1.00;;
33993;SDS011;20673;48.980;8.138;2022-08-02T00:35:53;2.42;;;1.07;;
33993;SDS011;20673;48.980;8.138;2022-08-02T00:38:20;4.07;;;1.00;;
33993;SDS011;20673;48.980;8.138;2022-08-02T00:40:46;1.60;;;1.30;;
33993;SDS011;20673;48.980;8.138;2022-08-02T00:43:15;2.15;;;1.07;;
33993;SDS011;20673;48.980;8.138;2022-08-02T00:45:41;1.65;;;1.45;;
33993;SDS011;20673;48.980;8.138;2022-08-02T00:48:09;3.07;;;1.40;;
33993;SDS011;20673;48.980;8.138;2022-08-02T00:50:38;1.77;;;1.25;;
33993;SDS011;20673;48.980;8.138;2022-08-02T00:53:05;2.65;;;1.22;;
33993;SDS011;20673;48.980;8.138;2022-08-02T00:55:35;2.90;;;1.40;;
33993;SDS011;20673;48.980;8.138;2022-08-02T00:58:03;2.33;;;1.37;;
33993;SDS011;20673;48.980;8.138;2022-08-02T01:00:30;2.23;;;1.23;;
33993;SDS011;20673;48.980;8.138;2022-08-02T01:02:56;2.30;;;1.23;;
33993;SDS011;20673;48.980;8.138;2022-08-02T01:05:22;2.53;;;1.30;;
33993;SDS011;20673;48.980;8.138;2022-08-02T01:07:49;2.43;;;1.23;;
33993;SDS011;20673;48.980;8.138;2022-08-02T01:10:15;2.37;;;1.17;;
33993;SDS011;20673;48.980;8.138;2022-08-02T01:12:41;2.00;;;1.10;;
33993;SDS011;20673;48.980;8.138;2022-08-02T01:15:09;3.33;;;1.22;;
33993;SDS011;20673;48.980;8.138;2022-08-02T01:17:42;3.50;;;0.90;;
33993;SDS011;20673;48.980;8.138;2022-08-02T01:29:21;1.50;;;1.30;;
33993;SDS011;20673;48.980;8.138;2022-08-02T01:32:09;1.55;;;1.17;;
33993;SDS011;20673;48.980;8.138;2022-08-02T01:34:45;2.70;;;1.07;;
33993;SDS011;20673;48.980;8.138;2022-08-02T01:37:23;3.93;;;1.40;;
33993;SDS011;20673;48.980;8.138;2022-08-02T01:39:54;1.52;;;1.25;;
33993;SDS011;20673;48.980;8.138;2022-08-02T01:42:25;3.52;;;1.57;;
33993;SDS011;20673;48.980;8.138;2022-08-02T01:44:54;1.73;;;1.30;;
33993;SDS011;20673;48.980;8.138;2022-08-02T01:47:23;5.00;;;1.30;;
33993;SDS011;20673;48.980;8.138;2022-08-02T01:49:56;2.80;;;1.40;;
33993;SDS011;20673;48.980;8.138;2022-08-02T01:52:30;3.25;;;1.32;;
33993;SDS011;20673;48.980;8.138;2022-08-02T01:55:07;1.60;;;1.40;;
33993;SDS011;20673;48.980;8.138;2022-08-02T01:57:44;2.10;;;1.27;;
33993;SDS011;20673;48.980;8.138;2022-08-02T02:00:18;1.30;;;1.00;;
33993;SDS011;20673;48.980;8.138;2022-08-02T02:02:48;4.73;;;1.20;;
33993;SDS011;20673;48.980;8.138;2022-08-02T02:05:19;2.92;;;1.30;;
33993;SDS011;20673;48.980;8.138;2022-08-02T02:07:49;2.33;;;1.13;;
33993;SDS011;20673;48.980;8.138;2022-08-02T02:10:20;2.07;;;0.90;;
33993;SDS011;20673;48.980;8.138;2022-08-02T02:12:51;2.35;;;1.25;;
33993;SDS011;20673;48.980;8.138;2022-08-02T02:15:19;2.40;;;1.27;;
33993;SDS011;20673;48.980;8.138;2022-08-02T02:17:48;2.13;;;1.40;;
33993;SDS011;20673;48.980;8.138;2022-08-02T02:20:18;2.63;;;1.23;;
33993;SDS011;20673;48.980;8.138;2022-08-02T02:22:46;2.37;;;1.60;;
33993;SDS011;20673;48.980;8.138;2022-08-02T02:25:14;2.80;;;1.52;;
33993;SDS011;20673;48.980;8.138;2022-08-02T02:27:57;2.00;;;1.47;;
33993;SDS011;20673;48.980;8.138;2022-08-02T02:30:27;2.98;;;1.30;;
33993;SDS011;20673;48.980;8.138;2022-08-02T02:32:57;2.70;;;1.30;;
33993;SDS011;20673;48.980;8.138;2022-08-02T02:35:29;4.33;;;1.80;;
33993;SDS011;20673;48.980;8.138;2022-08-02T02:38:01;1.90;;;1.30;;
33993;SDS011;20673;48.980;8.138;2022-08-02T02:40:31;1.80;;;1.47;;
33993;SDS011;20673;48.980;8.138;2022-08-02T02:42:59;1.57;;;1.40;;
33993;SDS011;20673;48.980;8.138;2022-08-02T02:45:27;3.27;;;1.60;;
33993;SDS011;20673;48.980;8.138;2022-08-02T02:47:57;2.47;;;1.30;;
33993;SDS011;20673;48.980;8.138;2022-08-02T02:50:26;3.53;;;1.97;;
33993;SDS011;20673;48.980;8.138;2022-08-02T02:52:55;2.97;;;1.70;;
33993;SDS011;20673;48.980;8.138;2022-08-02T02:55:22;1.80;;;1.30;;
33993;SDS011;20673;48.980;8.138;2022-08-02T02:57:50;1.83;;;1.23;;
33993;SDS011;20673;48.980;8.138;2022-08-02T03:00:16;3.00;;;1.80;;
33993;SDS011;20673;48.980;8.138;2022-08-02T03:02:45;3.23;;;1.63;;
33993;SDS011;20673;48.980;8.138;2022-08-02T03:05:12;3.83;;;1.90;;
33993;SDS011;20673;48.980;8.138;2022-08-02T03:07:40;3.83;;;1.60;;
33993;SDS011;20673;48.980;8.138;2022-08-02T03:10:07;3.90;;;1.57;;
33993;SDS011;20673;48.980;8.138;2022-08-02T03:12:34;3.53;;;1.43;;
33993;SDS011;20673;48.980;8.138;2022-08-02T03:15:03;2.80;;;1.67;;
33993;SDS011;20673;48.980;8.138;2022-08-02T03:17:39;3.17;;;1.60;;
33993;SDS011;20673;48.980;8.138;2022-08-02T03:20:13;4.35;;;1.75;;
33993;SDS011;20673;48.980;8.138;2022-08-02T03:22:44;2.13;;;1.50;;
33993;SDS011;20673;48.980;8.138;2022-08-02T03:25:11;2.40;;;1.63;;
33993;SDS011;20673;48.980;8.138;2022-08-02T03:27:40;3.47;;;2.20;;
33993;SDS011;20673;48.980;8.138;2022-08-02T03:30:07;3.27;;;2.00;;
33993;SDS011;20673;48.980;8.138;2022-08-02T03:32:36;5.30;;;1.80;;
33993;SDS011;20673;48.980;8.138;2022-08-02T03:35:04;3.83;;;2.03;;
33993;SDS011;20673;48.980;8.138;2022-08-02T03:37:35;2.20;;;1.95;;
33993;SDS011;20673;48.980;8.138;2022-08-02T03:40:04;2.12;;;1.92;;
33993;SDS011;20673;48.980;8.138;2022-08-02T03:42:33;2.42;;;1.42;;
33993;SDS011;20673;48.980;8.138;2022-08-02T03:45:00;3.98;;;1.77;;
33993;SDS011;20673;48.980;8.138;2022-08-02T03:47:28;2.57;;;2.17;;
33993;SDS011;20673;48.980;8.138;2022-08-02T03:49:56;1.90;;;1.50;;
33993;SDS011;20673;48.980;8.138;2022-08-02T03:52:24;3.57;;;1.87;;
33993;SDS011;20673;48.980;8.138;2022-08-02T03:54:52;1.93;;;1.73;;
33993;SDS011;20673;48.980;8.138;2022-08-02T03:57:19;1.85;;;1.60;;
33993;SDS011;20673;48.980;8.138;2022-08-02T03:59:45;2.65;;;1.50;;
33993;SDS011;20673;48.980;8.138;2022-08-02T04:02:12;5.08;;;1.98;;
33993;SDS011;20673;48.980;8.138;2022-08-02T04:04:38;2.33;;;1.75;;
33993;SDS011;20673;48.980;8.138;2022-08-02T04:07:05;2.60;;;1.60;;
33993;SDS011;20673;48.980;8.138;2022-08-02T04:09:31;2.43;;;1.47;;
33993;SDS011;20673;48.980;8.138;2022-08-02T04:11:57;2.23;;;1.83;;
33993;SDS011;20673;48.980;8.138;2022-08-02T04:14:24;4.03;;;2.20;;
33993;SDS011;20673;48.980;8.138;2022-08-02T04:17:01;2.58;;;1.57;;
33993;SDS011;20673;48.980;8.138;2022-08-02T04:22:16;2.00;;;1.57;;
33993;SDS011;20673;48.980;8.138;2022-08-02T04:24:56;1.42;;;1.32;;
33993;SDS011;20673;48.980;8.138;2022-08-02T04:27:25;2.85;;;1.95;;
33993;SDS011;20673;48.980;8.138;2022-08-02T04:29:53;2.80;;;1.75;;
33993;SDS011;20673;48.980;8.138;2022-08-02T04:32:22;2.05;;;1.82;;
33993;SDS011;20673;48.980;8.138;2022-08-02T04:34:49;3.35;;;1.92;;
33993;SDS011;20673;48.980;8.138;2022-08-02T04:37:15;2.87;;;1.72;;
33993;SDS011;20673;48.980;8.138;2022-08-02T04:39:42;3.80;;;2.00;;
33993;SDS011;20673;48.980;8.138;2022-08-02T04:42:08;3.60;;;1.67;;
33993;SDS011;20673;48.980;8.138;2022-08-02T04:44:35;2.27;;;1.80;;
33993;SDS011;20673;48.980;8.138;2022-08-02T04:47:01;3.87;;;1.97;;
33993;SDS011;20673;48.980;8.138;2022-08-02T04:49:30;2.95;;;2.40;;
33993;SDS011;20673;48.980;8.138;2022-08-02T04:51:56;2.50;;;1.83;;
33993;SDS011;20673;48.980;8.138;2022-08-02T04:54:22;2.63;;;1.70;;
33993;SDS011;20673;48.980;8.138;2022-08-02T04:56:50;2.40;;;1.73;;
33993;SDS011;20673;48.980;8.138;2022-08-02T04:59:16;1.90;;;1.70;;
33993;SDS011;20673;48.980;8.138;2022-08-02T05:01:42;2.00;;;1.80;;
33993;SDS011;20673;48.980;8.138;2022-08-02T05:04:08;2.13;;;1.90;;
33993;SDS011;20673;48.980;8.138;2022-08-02T05:06:35;2.60;;;1.83;;
33993;SDS011;20673;48.980;8.138;2022-08-02T05:09:01;2.30;;;1.90;;
33993;SDS011;20673;48.980;8.138;2022-08-02T05:11:27;2.87;;;1.87;;
33993;SDS011;20673;48.980;8.138;2022-08-02T05:13:54;5.23;;;1.87;;
33993;SDS011;20673;48.980;8.138;2022-08-02T05:16:20;2.40;;;1.83;;
33993;SDS011;20673;48.980;8.138;2022-08-02T05:18:46;2.50;;;1.93;;
33993;SDS011;20673;48.980;8.138;2022-08-02T05:21:13;2.87;;;2.00;;
33993;SDS011;20673;48.980;8.138;2022-08-02T05:23:39;5.07;;;2.87;;
33993;SDS011;20673;48.980;8.138;2022-08-02T05:26:05;2.67;;;2.33;;
33993;SDS011;20673;48.980;8.138;2022-08-02T05:28:31;2.30;;;2.10;;
33993;SDS011;20673;48.980;8.138;2022-08-02T05:30:57;3.55;;;2.30;;
33993;SDS011;20673;48.980;8.138;2022-08-02T05:33:23;3.90;;;2.42;;
33993;SDS011;20673;48.980;8.138;2022-08-02T05:35:50;2.40;;;2.20;;
33993;SDS011;20673;48.980;8.138;2022-08-02T05:38:16;4.93;;;2.73;;
33993;SDS011;20673;48.980;8.138;2022-08-02T05:40:42;4.33;;;2.20;;
33993;SDS011;20673;48.980;8.138;2022-08-02T05:43:12;3.42;;;2.83;;
33993;SDS011;20673;48.980;8.138;2022-08-02T05:45:39;3.37;;;2.50;;
33993;SDS011;20673;48.980;8.138;2022-08-02T05:48:06;3.37;;;2.25;;
33993;SDS011;20673;48.980;8.138;2022-08-02T05:50:33;2.50;;;2.02;;
33993;SDS011;20673;48.980;8.138;2022-08-02T05:53:09;2.50;;;2.23;;
33993;SDS011;20673;48.980;8.138;2022-08-02T05:55:52;3.80;;;2.20;;
33993;SDS011;20673;48.980;8.138;2022-08-02T05:58:26;4.95;;;2.67;;
33993;SDS011;20673;48.980;8.138;2022-08-02T06:00:51;4.03;;;2.25;;
33993;SDS011;20673;48.980;8.138;2022-08-02T06:03:23;3.08;;;2.10;;
33993;SDS011;20673;48.980;8.138;2022-08-02T06:08:38;4.10;;;2.12;;
33993;SDS011;20673;48.980;8.138;2022-08-02T06:11:11;4.27;;;2.60;;
33993;SDS011;20673;48.980;8.138;2022-08-02T06:13:42;4.80;;;2.60;;
33993;SDS011;20673;48.980;8.138;2022-08-02T06:16:11;3.60;;;2.92;;
33993;SDS011;20673;48.980;8.138;2022-08-02T06:18:39;2.27;;;2.08;;
33993;SDS011;20673;48.980;8.138;2022-08-02T06:21:06;3.93;;;3.00;;
33993;SDS011;20673;48.980;8.138;2022-08-02T06:23:38;5.20;;;2.75;;
33993;SDS011;20673;48.980;8.138;2022-08-02T06:26:07;5.40;;;2.43;;
33993;SDS011;20673;48.980;8.138;2022-08-02T06:28:36;3.67;;;2.65;;
33993;SDS011;20673;48.980;8.138;2022-08-02T06:31:04;3.67;;;2.50;;
33993;SDS011;20673;48.980;8.138;2022-08-02T06:33:31;3.77;;;2.67;;
33993;SDS011;20673;48.980;8.138;2022-08-02T06:36:02;4.53;;;2.62;;
33993;SDS011;20673;48.980;8.138;2022-08-02T06:39:24;2.52;;;2.33;;
33993;SDS011;20673;48.980;8.138;2022-08-02T06:41:11;2.42;;;2.17;;
33993;SDS011;20673;48.980;8.138;2022-08-02T06:46:28;3.25;;;2.70;;
33993;SDS011;20673;48.980;8.138;2022-08-02T06:48:55;2.72;;;2.42;;
33993;SDS011;20673;48.980;8.138;2022-08-02T06:51:22;3.02;;;2.72;;
33993;SDS011;20673;48.980;8.138;2022-08-02T06:53:48;3.00;;;2.70;;
33993;SDS011;20673;48.980;8.138;2022-08-02T06:56:15;4.58;;;3.10;;
33993;SDS011;20673;48.980;8.138;2022-08-02T06:58:41;3.12;;;2.75;;
33993;SDS011;20673;48.980;8.138;2022-08-02T07:01:07;2.85;;;2.65;;
33993;SDS011;20673;48.980;8.138;2022-08-02T07:03:34;4.90;;;4.30;;
33993;SDS011;20673;48.980;8.138;2022-08-02T07:06:05;4.22;;;3.83;;
33993;SDS011;20673;48.980;8.138;2022-08-02T07:08:38;5.08;;;3.75;;
33993;SDS011;20673;48.980;8.138;2022-08-02T07:11:05;4.67;;;3.95;;
33993;SDS011;20673;48.980;8.138;2022-08-02T07:13:33;3.80;;;3.12;;
33993;SDS011;20673;48.980;8.138;2022-08-02T07:16:00;3.95;;;2.92;;
33993;SDS011;20673;48.980;8.138;2022-08-02T07:18:28;4.05;;;3.00;;
33993;SDS011;20673;48.980;8.138;2022-08-02T07:20:55;3.02;;;2.75;;
33993;SDS011;20673;48.980;8.138;2022-08-02T07:23:21;5.55;;;3.12;;
33993;SDS011;20673;48.980;8.138;2022-08-02T07:25:47;4.78;;;3.75;;
33993;SDS011;20673;48.980;8.138;2022-08-02T07:28:14;3.83;;;3.00;;
33993;SDS011;20673;48.980;8.138;2022-08-02T07:30:41;3.08;;;2.77;;
33993;SDS011;20673;48.980;8.138;2022-08-02T07:33:07;2.72;;;2.52;;
33993;SDS011;20673;48.980;8.138;2022-08-02T07:35:34;5.30;;;2.70;;
33993;SDS011;20673;48.980;8.138;2022-08-02T07:38:01;3.47;;;3.17;;
33993;SDS011;20673;48.980;8.138;2022-08-02T07:40:28;4.08;;;3.20;;
33993;SDS011;20673;48.980;8.138;2022-08-02T07:42:54;6.30;;;3.47;;
33993;SDS011;20673;48.980;8.138;2022-08-02T07:45:22;5.72;;;3.75;;
33993;SDS011;20673;48.980;8.138;2022-08-02T07:47:49;5.53;;;3.40;;
33993;SDS011;20673;48.980;8.138;2022-08-02T07:50:17;4.10;;;3.58;;
33993;SDS011;20673;48.980;8.138;2022-08-02T07:52:47;5.55;;;3.33;;
33993;SDS011;20673;48.980;8.138;2022-08-02T07:55:15;3.42;;;3.08;;
33993;SDS011;20673;48.980;8.138;2022-08-02T07:57:42;3.90;;;3.50;;
33993;SDS011;20673;48.980;8.138;2022-08-02T08:00:10;3.75;;;3.45;;
33993;SDS011;20673;48.980;8.138;2022-08-02T08:02:38;3.90;;;3.50;;
33993;SDS011;20673;48.980;8.138;2022-08-02T08:05:04;3.70;;;3.40;;
33993;SDS011;20673;48.980;8.138;2022-08-02T08:07:32;3.72;;;3.42;;
33993;SDS011;20673;48.980;8.138;2022-08-02T08:09:59;3.75;;;3.20;;
33993;SDS011;20673;48.980;8.138;2022-08-02T08:12:26;4.95;;;3.85;;
33993;SDS011;20673;48.980;8.138;2022-08-02T08:14:52;3.50;;;3.20;;
33993;SDS011;20673;48.980;8.138;2022-08-02T08:17:18;3.98;;;3.58;;
33993;SDS011;20673;48.980;8.138;2022-08-02T08:19:45;4.22;;;3.67;;
33993;SDS011;20673;48.980;8.138;2022-08-02T08:22:12;8.20;;;3.67;;
33993;SDS011;20673;48.980;8.138;2022-08-02T08:24:38;3.77;;;3.12;;
33993;SDS011;20673;48.980;8.138;2022-08-02T08:27:04;3.45;;;3.15;;
33993;SDS011;20673;48.980;8.138;2022-08-02T08:29:31;4.03;;;3.62;;
33993;SDS011;20673;48.980;8.138;2022-08-02T08:31:57;4.65;;;3.50;;
33993;SDS011;20673;48.980;8.138;2022-08-02T08:34:23;7.70;;;3.62;;
33993;SDS011;20673;48.980;8.138;2022-08-02T08:36:51;4.72;;;3.50;;
33993;SDS011;20673;48.980;8.138;2022-08-02T08:39:17;3.85;;;3.50;;
33993;SDS011;20673;48.980;8.138;2022-08-02T08:41:43;5.40;;;3.30;;
33993;SDS011;20673;48.980;8.138;2022-08-02T08:44:09;3.90;;;3.50;;
33993;SDS011;20673;48.980;8.138;2022-08-02T08:46:36;3.35;;;3.05;;
33993;SDS011;20673;48.980;8.138;2022-08-02T08:49:47;3.55;;;3.00;;
33993;SDS011;20673;48.980;8.138;2022-08-02T08:52:04;3.05;;;2.75;;
33993;SDS011;20673;48.980;8.138;2022-08-02T08:54:32;3.60;;;3.00;;
33993;SDS011;20673;48.980;8.138;2022-08-02T08:57:03;3.50;;;3.20;;
33993;SDS011;20673;48.980;8.138;2022-08-02T08:59:29;3.55;;;2.60;;
33993;SDS011;20673;48.980;8.138;2022-08-02T09:01:56;2.58;;;2.37;;
33993;SDS011;20673;48.980;8.138;2022-08-02T09:04:23;3.27;;;2.52;;
33993;SDS011;20673;48.980;8.138;2022-08-02T09:06:49;3.37;;;2.55;;
33993;SDS011;20673;48.980;8.138;2022-08-02T09:09:16;3.62;;;2.60;;
33993;SDS011;20673;48.980;8.138;2022-08-02T09:11:42;4.15;;;2.50;;
33993;SDS011;20673;48.980;8.138;2022-08-02T09:14:08;4.12;;;2.65;;
33993;SDS011;20673;48.980;8.138;2022-08-02T09:16:40;4.90;;;2.72;;
33993;SDS011;20673;48.980;8.138;2022-08-02T09:21:51;2.70;;;2.45;;
33993;SDS011;20673;48.980;8.138;2022-08-02T09:24:26;3.67;;;2.70;;
33993;SDS011;20673;48.980;8.138;2022-08-02T09:26:53;3.02;;;2.75;;
33993;SDS011;20673;48.980;8.138;2022-08-02T09:29:22;5.12;;;2.40;;
33993;SDS011;20673;48.980;8.138;2022-08-02T09:31:49;3.00;;;2.40;;
33993;SDS011;20673;48.980;8.138;2022-08-02T09:34:16;3.85;;;2.95;;
33993;SDS011;20673;48.980;8.138;2022-08-02T09:36:44;2.65;;;2.40;;
33993;SDS011;20673;48.980;8.138;2022-08-02T09:39:13;3.60;;;2.40;;
33993;SDS011;20673;48.980;8.138;2022-08-02T09:41:41;3.02;;;2.62;;
33993;SDS011;20673;48.980;8.138;2022-08-02T09:44:14;5.85;;;2.47;;
33993;SDS011;20673;48.980;8.138;2022-08-02T09:46:41;2.52;;;2.30;;
33993;SDS011;20673;48.980;8.138;2022-08-02T09:56:50;3.77;;;2.80;;
33993;SDS011;20673;48.980;8.138;2022-08-02T09:59:24;3.35;;;2.80;;
33993;SDS011;20673;48.980;8.138;2022-08-02T10:01:52;3.20;;;2.90;;
33993;SDS011;20673;48.980;8.138;2022-08-02T10:04:24;3.75;;;3.45;;
33993;SDS011;20673;48.980;8.138;2022-08-02T10:06:54;3.05;;;2.85;;
33993;SDS011;20673;48.980;8.138;2022-08-02T10:09:20;3.47;;;2.90;;
33993;SDS011;20673;48.980;8.138;2022-08-02T10:11:47;2.92;;;2.67;;
33993;SDS011;20673;48.980;8.138;2022-08-02T10:14:14;4.28;;;2.90;;
33993;SDS011;20673;48.980;8.138;2022-08-02T10:16:42;3.60;;;2.70;;
33993;SDS011;20673;48.980;8.138;2022-08-02T10:19:09;4.12;;;2.65;;
33993;SDS011;20673;48.980;8.138;2022-08-02T10:21:38;2.67;;;2.47;;
33993;SDS011;20673;48.980;8.138;2022-08-02T10:24:18;3.17;;;2.85;;
33993;SDS011;20673;48.980;8.138;2022-08-02T10:26:49;3.72;;;2.65;;
33993;SDS011;20673;48.980;8.138;2022-08-02T10:29:17;2.83;;;2.62;;
33993;SDS011;20673;48.980;8.138;2022-08-02T10:34:20;4.28;;;3.17;;
33993;SDS011;20673;48.980;8.138;2022-08-02T10:36:57;2.90;;;2.70;;
33993;SDS011;20673;48.980;8.138;2022-08-02T10:39:37;3.58;;;2.70;;
33993;SDS011;20673;48.980;8.138;2022-08-02T10:42:10;3.85;;;2.87;;
33993;SDS011;20673;48.980;8.138;2022-08-02T10:44:37;3.42;;;2.67;;
33993;SDS011;20673;48.980;8.138;2022-08-02T10:49:52;3.15;;;2.80;;
33993;SDS011;20673;48.980;8.138;2022-08-02T10:52:27;3.02;;;2.72;;
33993;SDS011;20673;48.980;8.138;2022-08-02T10:55:09;2.60;;;2.40;;
33993;SDS011;20673;48.980;8.138;2022-08-02T10:57:38;2.90;;;2.70;;
33993;SDS011;20673;48.980;8.138;2022-08-02T11:02:43;2.95;;;2.60;;
33993;SDS011;20673;48.980;8.138;2022-08-02T11:05:25;2.67;;;2.47;;
33993;SDS011;20673;48.980;8.138;2022-08-02T11:07:58;2.77;;;2.58;;
33993;SDS011;20673;48.980;8.138;2022-08-02T11:10:32;2.80;;;2.60;;
33993;SDS011;20673;48.980;8.138;2022-08-02T11:13:03;2.95;;;2.75;;
33993;SDS011;20673;48.980;8.138;2022-08-02T11:15:55;4.20;;;2.70;;
33993;SDS011;20673;48.980;8.138;2022-08-02T11:21:24;3.02;;;2.67;;
33993;SDS011;20673;48.980;8.138;2022-08-02T11:23:54;2.77;;;2.50;;
33993;SDS011;20673;48.980;8.138;2022-08-02T11:29:03;3.30;;;2.15;;
33993;SDS011;20673;48.980;8.138;2022-08-02T11:31:37;3.08;;;2.37;;
33993;SDS011;20673;48.980;8.138;2022-08-02T11:34:07;2.72;;;2.40;;
33993;SDS011;20673;48.980;8.138;2022-08-02T11:36:41;5.70;;;2.30;;
33993;SDS011;20673;48.980;8.138;2022-08-02T11:39:17;2.80;;;2.60;;
33993;SDS011;20673;48.980;8.138;2022-08-02T11:41:50;3.25;;;2.40;;
33993;SDS011;20673;48.980;8.138;2022-08-02T11:44:23;2.87;;;2.67;;
33993;SDS011;20673;48.980;8.138;2022-08-02T11:46:58;2.67;;;2.47;;
33993;SDS011;20673;48.980;8.138;2022-08-02T11:49:27;2.58;;;2.37;;
33993;SDS011;20673;48.980;8.138;2022-08-02T11:51:55;3.00;;;2.70;;
33993;SDS011;20673;48.980;8.138;2022-08-02T11:54:28;2.90;;;2.30;;
33993;SDS011;20673;48.980;8.138;2022-08-02T11:59:46;3.52;;;2.40;;
33993;SDS011;20673;48.980;8.138;2022-08-02T12:02:16;3.40;;;2.33;;
33993;SDS011;20673;48.980;8.138;2022-08-02T12:04:57;2.70;;;2.50;;
33993;SDS011;20673;48.980;8.138;2022-08-02T12:07:33;4.10;;;2.45;;
33993;SDS011;20673;48.980;8.138;2022-08-02T12:10:08;2.60;;;2.40;;
33993;SDS011;20673;48.980;8.138;2022-08-02T12:12:57;2.75;;;2.55;;
33993;SDS011;20673;48.980;8.138;2022-08-02T12:18:08;2.15;;;2.05;;
33993;SDS011;20673;48.980;8.138;2022-08-02T12:21:19;2.27;;;2.17;;
33993;SDS011;20673;48.980;8.138;2022-08-02T12:23:49;2.67;;;2.47;;
33993;SDS011;20673;48.980;8.138;2022-08-02T12:26:16;3.30;;;2.20;;
33993;SDS011;20673;48.980;8.138;2022-08-02T12:28:43;2.33;;;2.10;;
33993;SDS011;20673;48.980;8.138;2022-08-02T12:31:10;2.45;;;2.25;;
33993;SDS011;20673;48.980;8.138;2022-08-02T12:36:23;2.10;;;2.00;;
33993;SDS011;20673;48.980;8.138;2022-08-02T12:41:26;4.45;;;2.45;;
33993;SDS011;20673;48.980;8.138;2022-08-02T12:43:54;2.02;;;1.85;;
33993;SDS011;20673;48.980;8.138;2022-08-02T12:46:22;2.90;;;2.02;;
33993;SDS011;20673;48.980;8.138;2022-08-02T12:48:49;2.42;;;2.02;;
33993;SDS011;20673;48.980;8.138;2022-08-02T12:53:50;1.67;;;1.57;;
33993;SDS011;20673;48.980;8.138;2022-08-02T12:56:31;1.72;;;1.62;;
33993;SDS011;20673;48.980;8.138;2022-08-02T12:59:01;1.90;;;1.80;;
33993;SDS011;20673;48.980;8.138;2022-08-02T13:01:28;2.52;;;1.32;;
33993;SDS011;20673;48.980;8.138;2022-08-02T13:03:55;2.30;;;1.82;;
33993;SDS011;20673;48.980;8.138;2022-08-02T13:06:22;1.87;;;1.77;;
33993;SDS011;20673;48.980;8.138;2022-08-02T13:08:50;2.35;;;2.10;;
33993;SDS011;20673;48.980;8.138;2022-08-02T13:11:19;4.37;;;2.20;;
33993;SDS011;20673;48.980;8.138;2022-08-02T13:13:46;2.62;;;1.77;;
33993;SDS011;20673;48.980;8.138;2022-08-02T13:16:13;2.27;;;1.62;;
33993;SDS011;20673;48.980;8.138;2022-08-02T13:18:39;1.72;;;1.62;;
33993;SDS011;20673;48.980;8.138;2022-08-02T13:21:06;4.12;;;1.98;;
33993;SDS011;20673;48.980;8.138;2022-08-02T13:23:33;2.33;;;1.82;;
33993;SDS011;20673;48.980;8.138;2022-08-02T13:26:01;1.90;;;1.80;;
33993;SDS011;20673;48.980;8.138;2022-08-02T13:28:29;2.08;;;1.77;;
33993;SDS011;20673;48.980;8.138;2022-08-02T13:30:55;2.25;;;2.00;;
33993;SDS011;20673;48.980;8.138;2022-08-02T13:33:21;2.37;;;1.87;;
33993;SDS011;20673;48.980;8.138;2022-08-02T13:35:48;2.40;;;2.00;;
33993;SDS011;20673;48.980;8.138;2022-08-02T13:38:15;1.70;;;1.60;;
33993;SDS011;20673;48.980;8.138;2022-08-02T13:40:41;1.62;;;1.52;;
33993;SDS011;20673;48.980;8.138;2022-08-02T13:43:25;1.77;;;1.67;;
33993;SDS011;20673;48.980;8.138;2022-08-02T13:45:52;2.33;;;1.80;;
33993;SDS011;20673;48.980;8.138;2022-08-02T13:48:18;2.17;;;1.75;;
33993;SDS011;20673;48.980;8.138;2022-08-02T13:50:44;1.95;;;1.85;;
33993;SDS011;20673;48.980;8.138;2022-08-02T13:53:11;1.90;;;1.80;;
33993;SDS011;20673;48.980;8.138;2022-08-02T13:55:37;2.30;;;1.80;;
33993;SDS011;20673;48.980;8.138;2022-08-02T13:58:04;1.90;;;1.80;;
33993;SDS011;20673;48.980;8.138;2022-08-02T14:00:30;1.72;;;1.62;;
33993;SDS011;20673;48.980;8.138;2022-08-02T14:02:56;3.00;;;1.65;;
33993;SDS011;20673;48.980;8.138;2022-08-02T14:05:23;1.67;;;1.57;;
33993;SDS011;20673;48.980;8.138;2022-08-02T14:07:51;2.87;;;1.80;;
33993;SDS011;20673;48.980;8.138;2022-08-02T14:10:17;1.52;;;1.42;;
33993;SDS011;20673;48.980;8.138;2022-08-02T14:12:43;2.15;;;1.95;;
33993;SDS011;20673;48.980;8.138;2022-08-02T14:15:09;3.90;;;1.65;;
33993;SDS011;20673;48.980;8.138;2022-08-02T14:17:35;1.82;;;1.72;;
33993;SDS011;20673;48.980;8.138;2022-08-02T14:20:02;2.05;;;1.70;;
33993;SDS011;20673;48.980;8.138;2022-08-02T14:22:28;1.82;;;1.72;;
33993;SDS011;20673;48.980;8.138;2022-08-02T14:24:55;1.90;;;1.80;;
33993;SDS011;20673;48.980;8.138;2022-08-02T14:27:21;2.10;;;1.67;;
33993;SDS011;20673;48.980;8.138;2022-08-02T14:29:48;2.00;;;1.65;;
33993;SDS011;20673;48.980;8.138;2022-08-02T14:32:16;2.22;;;1.60;;
33993;SDS011;20673;48.980;8.138;2022-08-02T14:34:42;3.60;;;1.72;;
33993;SDS011;20673;48.980;8.138;2022-08-02T14:37:10;2.33;;;1.77;;
33993;SDS011;20673;48.980;8.138;2022-08-02T14:39:37;1.92;;;1.70;;
33993;SDS011;20673;48.980;8.138;2022-08-02T14:42:03;1.60;;;1.50;;
33993;SDS011;20673;48.980;8.138;2022-08-02T14:44:29;1.72;;;1.52;;
33993;SDS011;20673;48.980;8.138;2022-08-02T14:46:55;2.17;;;1.70;;
33993;SDS011;20673;48.980;8.138;2022-08-02T14:49:22;1.92;;;1.82;;
33993;SDS011;20673;48.980;8.138;2022-08-02T14:51:48;1.75;;;1.65;;
33993;SDS011;20673;48.980;8.138;2022-08-02T14:54:14;1.87;;;1.55;;
33993;SDS011;20673;48.980;8.138;2022-08-02T14:56:40;1.82;;;1.50;;
33993;SDS011;20673;48.980;8.138;2022-08-02T14:59:07;2.12;;;1.90;;
33993;SDS011;20673;48.980;8.138;2022-08-02T15:01:33;1.95;;;1.52;;
33993;SDS011;20673;48.980;8.138;2022-08-02T15:04:00;1.50;;;1.40;;
33993;SDS011;20673;48.980;8.138;2022-08-02T15:06:27;1.87;;;1.67;;
33993;SDS011;20673;48.980;8.138;2022-08-02T15:08:55;1.60;;;1.50;;
33993;SDS011;20673;48.980;8.138;2022-08-02T15:11:21;2.27;;;1.55;;
33993;SDS011;20673;48.980;8.138;2022-08-02T15:13:47;3.05;;;1.72;;
33993;SDS011;20673;48.980;8.138;2022-08-02T15:16:13;1.85;;;1.75;;
33993;SDS011;20673;48.980;8.138;2022-08-02T15:18:39;2.00;;;1.70;;
33993;SDS011;20673;48.980;8.138;2022-08-02T15:21:05;1.98;;;1.40;;
33993;SDS011;20673;48.980;8.138;2022-08-02T15:23:32;1.82;;;1.62;;
33993;SDS011;20673;48.980;8.138;2022-08-02T15:25:58;3.10;;;1.95;;
33993;SDS011;20673;48.980;8.138;2022-08-02T15:28:24;2.67;;;1.60;;
33993;SDS011;20673;48.980;8.138;2022-08-02T15:30:50;3.20;;;1.50;;
33993;SDS011;20673;48.980;8.138;2022-08-02T15:33:16;2.37;;;1.80;;
33993;SDS011;20673;48.980;8.138;2022-08-02T15:35:42;1.72;;;1.62;;
33993;SDS011;20673;48.980;8.138;2022-08-02T15:38:08;2.22;;;1.70;;
33993;SDS011;20673;48.980;8.138;2022-08-02T15:40:34;2.22;;;1.55;;
33993;SDS011;20673;48.980;8.138;2022-08-02T15:43:01;1.62;;;1.52;;
33993;SDS011;20673;48.980;8.138;2022-08-02T15:45:27;3.02;;;1.47;;
33993;SDS011;20673;48.980;8.138;2022-08-02T15:47:53;1.40;;;1.30;;
33993;SDS011;20673;48.980;8.138;2022-08-02T15:50:20;1.60;;;1.50;;
33993;SDS011;20673;48.980;8.138;2022-08-02T15:52:46;1.70;;;1.60;;